Flight Track Log - Related Links

Times and Time Zones

All times are in EDT time to prevent confusion due to time zone crossing. See the N466TC flight status page for this flight to view local times or setup timezone preferences in your user account.

Time Position Orientation Groundspeed Altitude Reporting Facility
EDT Latitude Longitude Course Direction KTS MPH feet Rate Location/Type
Fri 06:22:15 PM 26.6859 -80.1124 244° Southwest  Level FlightAware Approximate
Fri 06:23:15 PM 26.6923 -80.1512 238° Southwest  Level FlightAware Approximate
Fri 06:24:15 PM 26.6986 -80.1899 231° Southwest  Level FlightAware Approximate
Fri 06:25:15 PM 26.7049 -80.2287 222° Southwest  Level FlightAware Approximate
Fri 06:26:15 PM 26.7112 -80.2675 211° Southwest  Level FlightAware Approximate
Fri 06:27:15 PM 26.7175 -80.3063 198° South  Level FlightAware Approximate
Fri 06:28:15 PM 26.7238 -80.3450 184° South  Level FlightAware Approximate
Fri 06:29:15 PM 26.7301 -80.3838 171° South  Level FlightAware Approximate
Fri 06:30:15 PM 26.7363 -80.4226 160° South  Level FlightAware Approximate
Fri 06:31:15 PM 26.7426 -80.4614 151° Southeast  Level FlightAware Approximate
Fri 06:32:15 PM 26.7488 -80.5003 143° Southeast  Level FlightAware Approximate
Fri 06:32:49 PM 26.5772 -80.3572 273° West 130 150 6,000  Level Miami Center
Fri 06:33:49 PM 26.5786 -80.3897 276° West 141 162 6,000 -300 Level Miami Center
Fri 06:34:49 PM 26.5836 -80.4433 275° West 147 169 5,400 -500 Descending Miami Center
Fri 06:35:49 PM 26.5869 -80.4831 275° West 152 175 5,000 -550 Descending Miami Center
Fri 06:36:49 PM 26.5917 -80.5436 279° West 165 190 4,300 -500 Descending Miami Center
Fri 06:37:49 PM 26.5969 -80.5831 279° West 159 183 4,000 -150 Descending Miami Center
Fri 06:38:49 PM 26.6039 -80.6344 280° West 159 183 4,000  Level Miami Center
Fri 06:39:49 PM 26.6092 -80.6694 280° West 144 166 4,000  Level Miami Center
Fri 06:40:49 PM 26.6164 -80.7139 276° West 139 160 4,000 300 Level Miami Center
Fri 06:41:49 PM 26.6197 -80.7467 268° West 130 150 4,600 600 Climbing Miami Center
Fri 06:42:49 PM 26.6189 -80.7814 277° West 115 132 5,200 500 Climbing Miami Center
Fri 06:43:49 PM 26.6222 -80.8117 297° West 105 121 5,600 450 Climbing Miami Center
Fri 06:44:49 PM 26.6339 -80.8375 258° West 96 110 6,100 450 Climbing Miami Center
Fri 06:45:49 PM 26.6267 -80.8744 285° West 105 121 6,500 450 Climbing Miami Center
Fri 06:46:49 PM 26.6342 -80.9050 268° West 102 117 7,000 450 Climbing Miami Center
Fri 06:47:49 PM 26.6333 -80.9375 287° West 107 123 7,400 400 Climbing Miami Center
Fri 06:48:49 PM 26.6408 -80.9656 268° West 107 123 7,800 350 Climbing Miami Center
Fri 06:49:49 PM 26.6400 -80.9981 275° West 102 117 8,100 150 Climbing Miami Center
Fri 06:50:49 PM 26.6431 -81.0353 281° West 120 138 8,100  Level Miami Center
Fri 06:51:49 PM 26.6503 -81.0775 289° West 134 154 8,100 -50 Level Miami Center
Fri 06:52:49 PM 26.6617 -81.1150 277° West 140 161 8,000 -50 Descending Miami Center
Fri 06:53:49 PM 26.6667 -81.1594 276° West 148 170 8,000  Level Miami Center
Fri 06:54:49 PM 26.6714 -81.2083 289° West 143 165 8,000 -203 Level Miami Center
Fri 07:13:04 PM 26.9167 -82.0000 291° West 151 174 4,100 -203 Descending Tampa TRACON
Fri 07:14:29 PM 26.9333 -82.0500 291° West 139 160 4,000  Descending Tampa TRACON
Fri 07:15:29 PM 26.9500 -82.1000 299° West 141 162 4,100 50 Climbing Tampa TRACON
Fri 07:16:29 PM 26.9667 -82.1333 291° West 144 166 4,100  Level Tampa TRACON
Fri 07:17:29 PM 26.9833 -82.1833 299° West 141 162 4,100 -250 Level Tampa TRACON
Fri 07:18:29 PM 27.0000 -82.2167 291° West 146 168 3,600 -500 Descending Tampa TRACON
Fri 07:19:29 PM 27.0167 -82.2667 270° West 163 188 3,100 -550 Descending Tampa TRACON
Fri 07:20:29 PM 27.0167 -82.3167 270° West 156 180 2,500 -600 Descending Tampa TRACON

Login

Don't have an account? Register now (free) for customized features, flight alerts, and more!